ADDS METAR Data INFO
IDs: Format: Raw Decoded Include TAF

Data at: 1256 UTC 19 Jul 2018

KHWD 191254Z 01005KT 8SM OVC004 16/13 A2993 RMK AO2 SLP145 T01560133
KHWD 191224Z 36004KT 5SM BR OVC004 16/13 A2993 RMK AO2 T01560133
KHWD 191154Z 33005KT 7SM OVC005 16/13 A2993 RMK AO2 SLP144 T01560133 10156 20150 55000
KHWD 191054Z 32003KT 7SM OVC006 16/13 A2993 RMK AO2 CIG 003V008 SLP144 T01560133
KHWD 190954Z 36004KT 8SM OVC006 16/13 A2993 RMK AO2 SLP142 T01560128
KHWD 190914Z 31004KT 8SM BKN007 16/13 A2993 RMK AO2 T01560128
KHWD 190854Z 31004KT 8SM FEW008 15/12 A2993 RMK AO2 SLP144 T01500122 58006
KHWD 190754Z 31003KT 10SM CLR 15/13 A2994 RMK AO2 SLP146 T01500128 402500150
KHWD 190654Z 32006KT 10SM CLR 16/13 A2994 RMK AO2 SLP148 T01560128
KHWD 190554Z 31007KT 10SM CLR 16/13 A2995 RMK AO2 SLP150 T01560128 10239 20156 51010
KHWD 190454Z 30006KT 10SM CLR 16/12 A2994 RMK AO2 SLP148 T01610122
KHWD 190354Z 30008KT 10SM FEW090 17/13 A2993 RMK AO2 SLP143 T01720128
KHWD 190254Z 30009KT 10SM CLR 18/13 A2992 RMK AO2 SLP139 T01830128 56003
KHWD 190154Z 30012KT 10SM CLR 21/13 A2992 RMK AO2 SLP140 T02060133
KHWD 190054Z 30011KT 10SM FEW020 FEW180 22/14 A2992 RMK AO2 SLP140 T02220139
KHWD 182354Z 29013KT 10SM CLR 23/14 A2993 RMK AO2 SLP143 T02330139 10250 20200 56014
KHWD 182254Z 30012KT 10SM CLR 24/14 A2993 RMK AO2 SLP144 T02440144
KHWD 182154Z 29015KT 10SM CLR 25/14 A2995 RMK AO2 SLP150 T02500144
KHWD 182054Z 28014KT 10SM CLR 24/15 A2997 RMK AO2 SLP156 T02390150 58010
KHWD 181954Z 28010KT 10SM CLR 23/14 A2998 RMK AO2 SLP161 T02280144
KHWD 181854Z 28009KT 10SM CLR 22/14 A2999 RMK AO2 SLP165 T02220144
KHWD 181754Z 29006KT 10SM CLR 20/13 A3000 RMK AO2 SLP167 T02000133 10206 20150 50002
KHWD 181654Z 29005KT 10SM FEW013 19/13 A3001 RMK AO2 SLP170 T01890133
KHWD 181636Z 30005KT 10SM SCT012 18/13 A3001 RMK AO2 T01830128
KHWD 181554Z 34003KT 9SM BKN009 17/13 A3000 RMK AO2 SLP169 T01720133
KHWD 181454Z 03003KT 6SM HZ OVC007 16/13 A2999 RMK AO2 SLP165 T01610133 53005
KHWD 181354Z 03003KT 6SM BR OVC006 16/13 A2998 RMK AO2 SLP161 T01560133
KHWD 181306Z 00000KT 8SM OVC005 16/13 A2997 RMK AO2 T01560133
KHWD 181254Z 00000KT 7SM OVC004 15/13 A2997 RMK AO2 SLP159 T01500133
KHWD 181154Z 00000KT 7SM OVC004 15/13 A2998 RMK AO2 SLP159 T01500133 10156 20150 55000
KHWD 181151Z 00000KT 7SM OVC004 15/13 A2997 RMK AO2
KHWD 181131Z 34005KT 7SM OVC005 15/13 A2997 RMK AO2 T01500133
KHWD 181119Z 00000KT 7SM OVC004 15/13 A2997 RMK AO2 T01500133
KHWD 181054Z 35003KT 9SM OVC005 16/13 A2997 RMK AO2 SLP159 T01560133
KHWD 180954Z 35005KT 8SM OVC005 15/13 A2998 RMK AO2 SLP159 T01500128
KHWD 180932Z 33004KT 9SM OVC005 15/13 A2998 RMK AO2 T01500128
KHWD 180914Z 34003KT 9SM OVC004 15/13 A2998 RMK AO2 T01500133
KHWD 180854Z 00000KT 7SM OVC003 15/13 A2998 RMK AO2 SLP160 T01500133 50003
KHWD 180819Z 35005KT 5SM BR OVC003 15/13 A2998 RMK AO2 T01500133
KHWD 180754Z 36004KT 9SM OVC004 15/13 A2998 RMK AO2 SLP161 T01500133 402390150
KHWD 180731Z 01006KT 9SM OVC004 15/13 A2998 RMK AO2 T01500128
KHWD 180654Z 31007KT 8SM OVC005 15/13 A2998 RMK AO2 SLP162 T01500128
KHWD 180636Z 30007KT 9SM BKN005 15/13 A2998 RMK AO2 T01500128
KHWD 180620Z 30007KT 9SM SCT005 15/13 A2998 RMK AO2 T01500128
KHWD 180554Z 30006KT 10SM CLR 15/13 A2997 RMK AO2 SLP158 T01500128 10228 20150 51009
KHWD 180454Z 31007KT 10SM CLR 16/13 A2996 RMK AO2 SLP156 T01560128
KHWD 180354Z 32007KT 10SM CLR 17/13 A2996 RMK AO2 SLP154 T01670133
KHWD 180254Z 28009KT 10SM CLR 19/13 A2994 RMK AO2 SLP149 T01890133 55003
KHWD 180154Z 29010KT 10SM CLR 21/13 A2994 RMK AO2 SLP147 T02060133